Time;durP1;ratioP1;P1;durP2;ratioP2;P2;SDS_P1;SDS_P2;PMS_P1;PMS_P2;Temp;Humidity;BMP_temperature;BMP_pressure;BME280_temperature;BME280_humidity;BME280_pressure;Samples;Min_cycle;Max_cycle;Signal;HPM_P1;HPM_P2
2022/10/08 00:01:14;;;;;;;8.93;2.60;;;;;;;16.60;52.74;101541.63;4972672;28;124778;-73
2022/10/08 00:03:46;;;;;;;9.50;2.33;;;;;;;16.62;52.73;101536.19;4965970;28;126080;-73
2022/10/08 00:06:18;;;;;;;11.18;2.30;;;;;;;16.62;52.66;101544.22;4968977;28;114413;-73
2022/10/08 00:08:58;;;;;;;6.60;2.38;;;;;;;16.64;52.83;101536.97;4964482;28;113088;-74
2022/10/08 00:11:28;;;;;;;9.88;2.58;;;;;;;16.66;52.83;101540.41;4968458;28;123941;-74
2022/10/08 00:13:56;;;;;;;8.63;2.50;;;;;;;16.68;52.81;101543.84;4966626;28;123695;-73
2022/10/08 00:16:35;;;;;;;8.90;2.78;;;;;;;16.69;52.87;101545.59;4948259;28;114339;-73
2022/10/08 00:19:06;;;;;;;8.40;2.20;;;;;;;16.69;52.79;101550.94;4965622;28;114045;-73
2022/10/08 00:21:36;;;;;;;6.32;2.30;;;;;;;16.68;52.89;101554.53;4950139;28;124531;-73
2022/10/08 00:24:05;;;;;;;15.80;2.78;;;;;;;16.69;52.62;101550.94;4968442;28;125937;-73
2022/10/08 00:26:34;;;;;;;8.68;2.10;;;;;;;16.68;52.90;101554.53;4968360;28;114147;-73
2022/10/08 00:29:08;;;;;;;11.50;2.70;;;;;;;16.67;52.73;101547.47;4967240;28;114288;-73
2022/10/08 00:31:38;;;;;;;9.20;2.58;;;;;;;16.66;52.71;101545.75;4968856;28;124003;-74
2022/10/08 00:34:08;;;;;;;8.73;2.13;;;;;;;16.65;52.89;101549.38;4970435;28;124826;-73
2022/10/08 00:36:37;;;;;;;13.93;3.00;;;;;;;16.64;52.86;101543.16;4969703;28;113854;-74
2022/10/08 00:39:13;;;;;;;9.38;2.70;;;;;;;16.65;52.86;101544.03;4967224;28;113819;-73
2022/10/08 00:41:41;;;;;;;7.85;2.45;;;;;;;16.67;52.88;101542.13;4965002;28;124021;-73
2022/10/08 00:44:46;;;;;;;9.93;2.10;;;;;;;16.67;52.94;101531.41;4973100;28;123509;-73
2022/10/08 00:47:32;;;;;;;11.40;2.22;;;;;;;16.66;53.12;101535.91;4971101;28;115229;-73
2022/10/08 00:50:16;;;;;;;9.15;2.40;;;;;;;16.69;53.04;101545.59;4953498;28;114607;-73
2022/10/08 00:52:54;;;;;;;9.02;2.63;;;;;;;16.69;53.02;101545.59;4966651;28;123841;-73
2022/10/08 00:55:23;;;;;;;7.90;2.28;;;;;;;16.71;53.02;101543.69;4967871;28;123997;-73
2022/10/08 00:57:51;;;;;;;5.53;2.55;;;;;;;16.73;53.06;101547.97;4967817;28;114309;-73
2022/10/08 01:00:22;;;;;;;9.38;2.75;;;;;;;16.75;53.06;101550.56;4969148;28;113701;-74
2022/10/08 01:02:49;;;;;;;6.13;2.10;;;;;;;16.76;53.03;101546.91;4947270;28;124213;-73
2022/10/08 01:05:29;;;;;;;11.55;2.55;;;;;;;16.79;53.07;101551.25;4968961;28;124819;-73
2022/10/08 01:08:09;;;;;;;8.27;2.33;;;;;;;16.80;53.15;101543.13;4969066;28;114574;-73
2022/10/08 01:10:50;;;;;;;8.82;2.63;;;;;;;16.82;53.08;101541.25;4934780;28;114147;-74
2022/10/08 01:13:42;;;;;;;14.90;2.60;;;;;;;16.84;53.14;101550.03;4969899;28;124268;-74
2022/10/08 01:16:31;;;;;;;10.10;2.70;;;;;;;16.85;53.17;101557.09;4967905;28;124291;-74
2022/10/08 01:19:38;;;;;;;13.00;2.72;;;;;;;16.85;53.09;101557.09;4969270;28;114508;-73
2022/10/08 01:22:37;;;;;;;9.27;2.35;;;;;;;16.86;53.13;101558.00;4945327;28;113121;-73
2022/10/08 01:25:32;;;;;;;10.40;2.33;;;;;;;16.87;53.14;101570.38;4967692;28;123946;-74
2022/10/08 01:28:30;;;;;;;10.20;2.50;;;;;;;16.87;53.56;101565.91;4969796;28;123874;-73
2022/10/08 01:31:29;;;;;;;12.10;2.75;;;;;;;16.88;53.63;101564.09;4946129;28;114678;-74
2022/10/08 01:34:01;;;;;;;7.10;1.85;;;;;;;16.86;53.69;101564.19;4940693;28;114076;-73
2022/10/08 01:36:35;;;;;;;9.85;2.50;;;;;;;16.84;54.06;101560.75;4950727;28;124786;-73
2022/10/08 01:39:08;;;;;;;10.18;2.70;;;;;;;16.84;54.22;101555.41;4970363;28;124159;-73
2022/10/08 01:41:35;;;;;;;10.75;2.72;;;;;;;16.85;54.45;101561.59;4948442;28;114517;-74
2022/10/08 01:44:22;;;;;;;10.63;3.50;;;;;;;16.85;54.39;101562.44;4970526;28;117048;-74
2022/10/08 01:46:51;;;;;;;11.10;3.30;;;;;;;16.88;54.44;101562.28;4964099;28;125000;-73
2022/10/08 01:49:23;;;;;;;13.88;3.58;;;;;;;16.88;54.79;101570.31;4969611;28;124213;-73
2022/10/08 01:51:58;;;;;;;11.63;3.45;;;;;;;16.90;54.71;101583.59;4968317;28;113614;-73
2022/10/08 01:54:29;;;;;;;14.32;3.53;;;;;;;16.89;54.81;101564.00;4953162;28;112859;-73
2022/10/08 01:57:00;;;;;;;10.93;3.42;;;;;;;16.89;54.80;101573.84;4967600;28;124875;-74
2022/10/08 01:59:33;;;;;;;10.50;3.95;;;;;;;16.89;54.99;101568.47;4970609;28;124156;-73
2022/10/08 02:02:09;;;;;;;11.32;4.20;;;;;;;16.88;55.02;101572.97;4966391;28;114118;-73
2022/10/08 02:04:36;;;;;;;13.50;4.50;;;;;;;16.85;55.19;101567.81;4965613;28;113696;-73
2022/10/08 02:07:15;;;;;;;14.38;4.75;;;;;;;16.82;55.46;101568.00;4969552;28;124937;-73
2022/10/08 02:09:50;;;;;;;14.75;5.20;;;;;;;16.77;55.55;101580.75;4966361;28;123434;-74
2022/10/08 02:12:19;;;;;;;11.60;4.55;;;;;;;16.74;55.71;101564.88;4949672;28;113798;-74
2022/10/08 02:14:49;;;;;;;12.43;4.32;;;;;;;16.73;55.90;101579.22;4969228;28;114373;-73
2022/10/08 02:17:39;;;;;;;14.38;4.50;;;;;;;16.71;56.03;101586.47;4948219;28;124937;-73
2022/10/08 02:20:28;;;;;;;10.52;4.25;;;;;;;16.69;56.11;101588.38;4949605;28;122717;-73
2022/10/08 02:23:01;;;;;;;13.20;4.28;;;;;;;16.66;56.36;101589.41;4936144;28;114011;-73
2022/10/08 02:25:39;;;;;;;11.73;4.68;;;;;;;16.63;56.43;101588.72;4951911;28;113304;-74
2022/10/08 02:28:15;;;;;;;9.95;4.10;;;;;;;16.60;56.48;101594.28;4968460;28;123870;-73
2022/10/08 02:30:51;;;;;;;12.05;4.60;;;;;;;16.55;56.79;101582.00;4967100;28;124044;-74
2022/10/08 02:33:32;;;;;;;13.02;4.75;;;;;;;16.53;56.76;101586.59;4951703;28;114683;-73
2022/10/08 02:36:03;;;;;;;9.35;4.40;;;;;;;16.52;57.07;101587.56;4963518;28;115333;-74
2022/10/08 02:38:35;;;;;;;13.40;5.43;;;;;;;16.50;57.22;101588.56;4965988;28;123912;-74
2022/10/08 02:41:05;;;;;;;10.32;4.65;;;;;;;16.47;57.27;101589.63;4951886;28;122615;-74
2022/10/08 02:43:36;;;;;;;10.02;4.43;;;;;;;16.44;57.42;101579.09;4952077;28;113525;-74
2022/10/08 02:46:15;;;;;;;11.35;4.80;;;;;;;16.41;57.50;101578.44;4967367;28;113875;-73
2022/10/08 02:48:56;;;;;;;12.73;5.35;;;;;;;16.39;57.31;101581.19;4946630;28;123940;-74
2022/10/08 02:51:26;;;;;;;8.15;4.38;;;;;;;16.37;57.74;101576.88;4966003;28;123962;-73
2022/10/08 02:53:54;;;;;;;14.45;4.88;;;;;;;16.34;58.04;101573.41;4968548;28;115476;-75
2022/10/08 02:56:30;;;;;;;12.63;4.45;;;;;;;16.32;57.92;101575.31;4969586;28;113812;-73
2022/10/08 02:58:57;;;;;;;8.65;4.30;;;;;;;16.31;58.07;101578.06;4945183;28;124607;-73
2022/10/08 03:01:46;;;;;;;12.68;4.30;;;;;;;16.28;58.09;101583.63;4951999;28;124278;-74
2022/10/08 03:04:24;;;;;;;11.05;4.35;;;;;;;16.25;58.26;101578.44;4943893;28;114385;-74
2022/10/08 03:06:53;;;;;;;8.57;4.07;;;;;;;16.25;58.41;101581.13;4966667;28;113838;-73
2022/10/08 03:09:23;;;;;;;7.65;3.80;;;;;;;16.23;58.39;101581.19;4948414;28;123790;-73
2022/10/08 03:11:50;;;;;;;10.27;3.80;;;;;;;16.22;58.39;101587.50;4967742;28;124391;-73
2022/10/08 03:14:19;;;;;;;7.50;3.45;;;;;;;16.21;58.59;101587.59;4950919;28;113819;-73
2022/10/08 03:16:47;;;;;;;13.20;3.30;;;;;;;16.21;58.49;101595.59;4970077;28;113747;-74
2022/10/08 03:19:16;;;;;;;8.07;3.13;;;;;;;16.18;58.44;101587.75;4968415;28;123108;-73
2022/10/08 03:21:47;;;;;;;9.98;3.03;;;;;;;16.14;58.57;101590.63;4969401;28;123552;-74
2022/10/08 03:24:15;;;;;;;6.93;3.00;;;;;;;16.11;58.55;101582.75;4951263;28;115684;-74
2022/10/08 03:26:42;;;;;;;9.20;3.00;;;;;;;16.10;58.49;101590.84;4969052;28;115034;-74
2022/10/08 03:29:10;;;;;;;7.10;2.97;;;;;;;16.08;58.45;101598.09;4968412;28;123638;-73
2022/10/08 03:31:37;;;;;;;8.90;2.63;;;;;;;16.06;58.50;101600.84;4968905;28;123672;-73
2022/10/08 03:34:04;;;;;;;9.07;2.90;;;;;;;16.03;58.73;101601.03;4950702;28;113182;-73
2022/10/08 03:36:31;;;;;;;6.78;2.47;;;;;;;15.99;58.68;101602.13;4969296;28;115128;-74
2022/10/08 03:38:58;;;;;;;7.80;2.58;;;;;;;15.97;58.60;101609.38;4966494;28;123799;-74
2022/10/08 03:41:25;;;;;;;10.15;2.75;;;;;;;15.94;58.62;101612.25;4968624;28;123997;-73
2022/10/08 03:43:52;;;;;;;6.78;2.45;;;;;;;15.92;58.78;101614.13;4951831;28;114086;-74
2022/10/08 03:46:19;;;;;;;7.95;2.20;;;;;;;15.90;58.72;101616.03;4966719;28;114203;-74
2022/10/08 03:48:48;;;;;;;7.90;2.53;;;;;;;15.88;58.77;101612.56;4968483;28;123114;-74
2022/10/08 03:51:16;;;;;;;10.23;2.58;;;;;;;15.86;58.91;101618.00;4967500;28;124626;-74
2022/10/08 03:53:43;;;;;;;9.10;2.40;;;;;;;15.84;58.96;101613.69;4969315;28;114673;-74
2022/10/08 03:56:16;;;;;;;8.27;2.30;;;;;;;15.82;58.75;101612.91;4968176;28;113611;-74
2022/10/08 03:58:44;;;;;;;5.93;2.10;;;;;;;15.81;58.89;101611.19;4964289;28;124751;-74
2022/10/08 04:01:14;;;;;;;8.32;2.47;;;;;;;15.80;58.85;101620.13;4966515;28;123855;-73
2022/10/08 04:03:43;;;;;;;5.90;2.20;;;;;;;15.77;58.97;101627.38;4964456;28;114610;-74
2022/10/08 04:06:10;;;;;;;11.32;2.67;;;;;;;15.73;58.82;101620.47;4969293;28;114458;-74
2022/10/08 04:08:37;;;;;;;9.88;2.35;;;;;;;15.71;58.89;101619.66;4950613;28;124085;-73
2022/10/08 04:11:07;;;;;;;5.45;2.10;;;;;;;15.69;58.92;101621.56;4969040;28;124168;-73
2022/10/08 04:13:35;;;;;;;6.45;2.35;;;;;;;15.67;58.90;101625.25;4967636;28;114933;-74
2022/10/08 04:16:05;;;;;;;7.18;2.38;;;;;;;15.64;58.92;101634.28;4967288;28;114494;-74
2022/10/08 04:18:33;;;;;;;9.55;2.38;;;;;;;15.61;58.97;101625.59;4968517;28;124014;-73
2022/10/08 04:21:02;;;;;;;9.55;2.40;;;;;;;15.58;59.07;101637.31;4951099;28;124186;-73
2022/10/08 04:23:31;;;;;;;8.68;2.28;;;;;;;15.55;58.93;101638.31;4968417;28;114120;-74
2022/10/08 04:25:58;;;;;;;8.75;2.38;;;;;;;15.53;59.23;101634.00;4931795;28;113924;-73
2022/10/08 04:28:25;;;;;;;7.30;2.20;;;;;;;15.49;58.98;101635.13;4968820;28;124413;-73
2022/10/08 04:31:01;;;;;;;9.85;2.33;;;;;;;15.45;59.12;101630.91;4968469;28;123887;-74
2022/10/08 04:33:31;;;;;;;6.80;2.45;;;;;;;15.43;59.06;101643.47;4966527;28;114304;-74
2022/10/08 04:35:58;;;;;;;7.07;2.33;;;;;;;15.39;59.29;101645.44;4950288;28;113735;-74
2022/10/08 04:38:27;;;;;;;6.00;2.55;;;;;;;15.36;59.22;101643.75;4967179;28;123808;-74
2022/10/08 04:41:02;;;;;;;7.18;2.30;;;;;;;15.32;59.22;101647.53;4968081;28;124249;-74
2022/10/08 04:43:29;;;;;;;8.60;2.38;;;;;;;15.29;59.28;101642.34;4950213;28;113467;-73
2022/10/08 04:45:56;;;;;;;7.90;2.67;;;;;;;15.26;59.19;101647.88;4968309;28;113789;-73
2022/10/08 04:48:23;;;;;;;6.72;2.47;;;;;;;15.24;59.23;101655.09;4948038;28;123969;-73
2022/10/08 04:50:55;;;;;;;6.50;2.83;;;;;;;15.22;59.52;101664.97;4967978;28;124009;-73
2022/10/08 04:53:24;;;;;;;7.32;2.83;;;;;;;15.21;59.70;101665.06;4949530;28;114055;-73
2022/10/08 04:55:52;;;;;;;8.98;2.88;;;;;;;15.21;59.82;101670.41;4950561;28;113443;-74
2022/10/08 04:58:23;;;;;;;8.48;3.30;;;;;;;15.21;59.80;101671.25;4943974;28;123351;-74
2022/10/08 05:00:50;;;;;;;9.60;3.90;;;;;;;15.21;59.81;101671.25;4948086;28;124208;-73
2022/10/08 05:03:18;;;;;;;8.18;4.07;;;;;;;15.19;59.98;101662.47;4950003;28;115409;-73
2022/10/08 05:05:45;;;;;;;9.75;5.53;;;;;;;15.19;60.21;101673.13;4966553;28;114817;-73
2022/10/08 05:08:12;;;;;;;11.85;5.63;;;;;;;15.18;60.30;101682.06;4966211;28;124040;-73
2022/10/08 05:10:46;;;;;;;14.93;7.00;;;;;;;15.21;60.63;101686.41;4964533;28;122912;-73
2022/10/08 05:13:13;;;;;;;16.33;7.88;;;;;;;15.21;60.51;101687.25;4950220;28;113849;-74
2022/10/08 05:15:40;;;;;;;14.40;7.88;;;;;;;15.24;60.77;101691.56;4951356;28;113964;-73
2022/10/08 05:18:07;;;;;;;13.98;9.35;;;;;;;15.24;61.17;101687.13;4971260;28;124483;-74
2022/10/08 05:20:35;;;;;;;17.65;10.05;;;;;;;15.26;61.08;101703.06;4952853;28;121681;-73
2022/10/08 05:23:02;;;;;;;19.58;10.50;;;;;;;15.28;61.04;101694.03;4972397;28;114001;-74
2022/10/08 05:25:30;;;;;;;20.02;11.27;;;;;;;15.29;61.09;101695.72;4937264;28;112014;-73
2022/10/08 05:27:58;;;;;;;18.77;12.07;;;;;;;15.31;61.21;101696.53;4974695;28;123993;-74
2022/10/08 05:30:25;;;;;;;22.08;12.20;;;;;;;15.33;61.23;101691.97;4987950;28;124157;-73
2022/10/08 05:32:52;;;;;;;19.40;12.63;;;;;;;15.35;61.17;101700.78;4970586;28;112446;-73
2022/10/08 05:35:19;;;;;;;27.25;13.48;;;;;;;15.36;61.30;101697.16;4980553;28;113455;-73
2022/10/08 05:37:46;;;;;;;21.80;13.40;;;;;;;15.38;61.40;101703.25;4961025;28;123522;-72
2022/10/08 05:40:13;;;;;;;23.98;13.15;;;;;;;15.40;61.36;101708.53;4975575;28;124025;-73
2022/10/08 05:42:40;;;;;;;23.75;13.68;;;;;;;15.41;61.20;101714.72;4970295;28;114789;-73
2022/10/08 05:45:07;;;;;;;25.42;14.40;;;;;;;15.42;61.61;101716.47;4952895;28;114401;-72
2022/10/08 05:47:34;;;;;;;25.08;15.20;;;;;;;15.43;61.41;101720.88;4968742;28;124705;-73
2022/10/08 05:50:01;;;;;;;27.08;15.63;;;;;;;15.46;61.51;101728.72;4969421;28;123761;-72
2022/10/08 05:52:28;;;;;;;27.77;15.38;;;;;;;15.47;61.55;101725.97;4951085;28;114667;-73
2022/10/08 05:54:55;;;;;;;25.63;15.40;;;;;;;15.49;61.71;101729.41;4967611;28;115061;-73
2022/10/08 05:57:22;;;;;;;26.17;16.30;;;;;;;15.52;61.58;101733.72;4970628;28;123701;-73
2022/10/08 05:59:49;;;;;;;27.52;15.65;;;;;;;15.54;61.67;101737.22;4952608;28;124208;-73
2022/10/08 06:02:16;;;;;;;32.17;17.00;;;;;;;15.54;61.62;101737.22;4971034;28;114559;-73
2022/10/08 06:04:43;;;;;;;26.25;17.10;;;;;;;15.54;61.60;101748.75;4971586;28;114195;-73
2022/10/08 06:07:10;;;;;;;29.40;17.42;;;;;;;15.56;61.72;101751.34;4970187;28;124958;-73
2022/10/08 06:09:37;;;;;;;35.72;18.55;;;;;;;15.57;61.78;101750.38;4970714;28;124133;-73
2022/10/08 06:12:05;;;;;;;33.38;19.27;;;;;;;15.60;61.97;101752.03;4970723;28;114023;-74
2022/10/08 06:14:32;;;;;;;34.47;18.60;;;;;;;15.62;61.67;101756.34;4971453;28;113774;-73
2022/10/08 06:16:59;;;;;;;31.70;18.77;;;;;;;15.64;61.72;101767.81;4970024;28;124057;-73
2022/10/08 06:19:26;;;;;;;34.25;20.38;;;;;;;15.66;61.88;101776.63;4952352;28;123419;-73
2022/10/08 06:21:53;;;;;;;34.17;20.55;;;;;;;15.68;61.78;101782.72;4971819;28;114254;-73
2022/10/08 06:24:20;;;;;;;35.55;20.42;;;;;;;15.69;61.66;101784.47;4939667;28;114029;-73
2022/10/08 06:26:47;;;;;;;35.97;21.98;;;;;;;15.70;61.84;101780.84;4952500;28;123785;-73
2022/10/08 06:29:16;;;;;;;36.55;21.63;;;;;;;15.70;61.84;101786.19;4966708;28;123817;-73
2022/10/08 06:31:44;;;;;;;38.83;22.75;;;;;;;15.70;61.73;101791.53;4959778;28;113993;-73
2022/10/08 06:34:11;;;;;;;40.30;22.90;;;;;;;15.69;61.64;101789.81;4958205;28;114504;-73
2022/10/08 06:36:39;;;;;;;40.72;23.88;;;;;;;15.68;61.60;101793.41;4969758;28;124582;-73
2022/10/08 06:39:10;;;;;;;42.75;24.30;;;;;;;15.67;61.66;101802.38;4962066;28;123468;-73
2022/10/08 06:41:37;;;;;;;40.20;24.38;;;;;;;15.65;61.40;101804.28;4964651;28;115459;-73
2022/10/08 06:44:08;;;;;;;43.85;25.00;;;;;;;15.66;61.71;101806.00;4963747;28;115349;-73
2022/10/08 06:46:35;;;;;;;40.45;24.30;;;;;;;15.66;61.60;101811.34;4951848;28;123008;-73
2022/10/08 06:49:04;;;;;;;42.83;25.52;;;;;;;15.67;61.66;101806.84;4970080;28;124441;-73
2022/10/08 06:51:32;;;;;;;49.15;27.25;;;;;;;15.68;61.86;101814.78;4952690;28;113038;-73
2022/10/08 06:53:59;;;;;;;48.58;26.75;;;;;;;15.70;61.89;101817.38;4970830;28;114109;-73
2022/10/08 06:56:34;;;;;;;45.08;26.70;;;;;;;15.70;61.87;101818.25;4950109;28;124135;-73
2022/10/08 06:59:03;;;;;;;45.70;27.38;;;;;;;15.73;61.79;101822.56;4968165;28;123917;-73
2022/10/08 07:01:31;;;;;;;52.92;28.13;;;;;;;15.74;61.80;101830.53;4979942;28;113885;-73
2022/10/08 07:04:01;;;;;;;49.17;28.65;;;;;;;15.77;62.13;101841.06;4980287;28;115524;-73
2022/10/08 07:06:28;;;;;;;47.15;27.13;;;;;;;15.80;61.99;101841.84;4980256;28;123283;-73
2022/10/08 07:08:59;;;;;;;49.83;28.23;;;;;;;15.81;62.06;101843.59;4979740;28;124205;-74
2022/10/08 07:11:27;;;;;;;45.20;26.40;;;;;;;15.83;62.05;101850.56;4977239;28;114479;-73
2022/10/08 07:13:55;;;;;;;45.75;27.13;;;;;;;15.87;61.99;101861.97;4969053;28;114432;-73
2022/10/08 07:16:24;;;;;;;45.95;26.95;;;;;;;15.90;61.90;101859.16;4970177;28;123683;-73
2022/10/08 07:18:55;;;;;;;45.13;26.52;;;;;;;15.95;62.01;101865.09;4970765;28;124321;-73
2022/10/08 07:21:22;;;;;;;46.10;26.40;;;;;;;16.01;61.90;101870.16;4952099;28;113837;-73
2022/10/08 07:23:49;;;;;;;44.45;26.23;;;;;;;16.05;61.82;101882.41;4951965;28;114641;-73
2022/10/08 07:26:22;;;;;;;43.60;26.10;;;;;;;16.08;61.73;101871.53;4966261;28;123952;-73
2022/10/08 07:28:53;;;;;;;44.78;25.40;;;;;;;16.12;61.74;101883.81;4932142;28;124488;-73
2022/10/08 07:31:26;;;;;;;44.25;24.98;;;;;;;16.14;61.83;101889.94;4953539;28;115584;-73
2022/10/08 07:33:55;;;;;;;41.55;24.10;;;;;;;16.17;61.66;101890.72;4965298;28;115470;-73
2022/10/08 07:36:24;;;;;;;44.60;25.45;;;;;;;16.20;61.75;101890.56;4968109;28;124668;-73
2022/10/08 07:39:13;;;;;;;41.05;24.13;;;;;;;16.22;61.54;101894.00;4965625;28;123719;-73
2022/10/08 07:41:40;;;;;;;42.85;24.02;;;;;;;16.26;61.73;101898.28;4968956;28;114450;-73
2022/10/08 07:44:09;;;;;;;41.35;23.23;;;;;;;16.31;61.69;101898.88;4969328;28;113730;-73
2022/10/08 07:46:42;;;;;;;40.20;22.45;;;;;;;16.33;61.56;101907.69;4969607;28;122971;-73
2022/10/08 07:49:09;;;;;;;39.05;21.65;;;;;;;16.34;61.34;101904.06;4967377;28;124054;-73
2022/10/08 07:51:37;;;;;;;34.30;21.70;;;;;;;16.35;61.24;101911.16;4969906;28;114146;-73
2022/10/08 07:54:06;;;;;;;37.63;21.77;;;;;;;16.36;61.17;101912.88;4969580;28;113904;-73
2022/10/08 07:56:34;;;;;;;41.13;23.13;;;;;;;16.36;61.43;101918.22;4940168;28;123465;-72
2022/10/08 07:59:02;;;;;;;35.90;20.77;;;;;;;16.39;61.19;101918.06;4968806;28;123495;-73
2022/10/08 08:01:31;;;;;;;37.58;19.77;;;;;;;16.41;61.29;101929.56;4950429;28;113400;-73
2022/10/08 08:04:09;;;;;;;36.63;19.70;;;;;;;16.44;61.32;101921.34;4965327;28;113805;-73
2022/10/08 08:06:42;;;;;;;33.05;19.42;;;;;;;16.50;61.44;101921.06;4972862;28;124777;-73
2022/10/08 08:09:13;;;;;;;30.60;17.95;;;;;;;16.57;61.20;101920.72;4963153;28;123863;-73
2022/10/08 08:11:40;;;;;;;27.60;15.80;;;;;;;16.61;61.11;101928.47;4970137;28;114193;-73
2022/10/08 08:14:07;;;;;;;28.90;16.20;;;;;;;16.66;61.12;101930.94;4953748;28;114114;-73
2022/10/08 08:16:34;;;;;;;27.52;16.33;;;;;;;16.72;61.08;101931.44;4968745;28;123908;-73
2022/10/08 08:19:02;;;;;;;24.58;15.15;;;;;;;16.78;60.98;101935.59;4968697;28;124152;-73
2022/10/08 08:21:32;;;;;;;24.70;13.88;;;;;;;16.84;60.69;101940.69;4974671;28;114949;-73
2022/10/08 08:24:09;;;;;;;19.98;11.02;;;;;;;16.90;60.53;101937.66;4965559;28;116239;-73
2022/10/08 08:26:37;;;;;;;19.40;10.32;;;;;;;17.00;60.32;101934.50;4951269;28;123677;-73
2022/10/08 08:29:08;;;;;;;16.73;7.57;;;;;;;17.07;59.89;101949.28;4951503;28;122804;-73
2022/10/08 08:31:40;;;;;;;14.75;7.22;;;;;;;17.13;59.61;101951.59;4969103;28;114471;-73
2022/10/08 08:34:09;;;;;;;13.95;6.50;;;;;;;17.18;59.31;101954.91;4967490;28;114221;-72
2022/10/08 08:36:39;;;;;;;9.38;5.22;;;;;;;17.24;58.95;101959.06;4968390;28;124745;-73
2022/10/08 08:39:12;;;;;;;9.73;5.25;;;;;;;17.30;59.03;101964.91;4969998;28;125456;-73
2022/10/08 08:41:41;;;;;;;12.85;5.10;;;;;;;17.41;58.89;101960.78;4966968;28;114180;-73
2022/10/08 08:44:24;;;;;;;7.90;3.53;;;;;;;17.51;58.31;101972.72;4969503;28;113785;-73
2022/10/08 08:47:28;;;;;;;10.52;2.90;;;;;;;17.58;57.99;101982.13;4966353;28;123967;-73
2022/10/08 08:50:04;;;;;;;7.93;2.65;;;;;;;17.64;57.44;101979.09;4948905;28;123829;-73
2022/10/08 08:52:36;;;;;;;6.20;2.53;;;;;;;17.72;57.20;101981.34;4953063;28;114714;-73
2022/10/08 08:55:13;;;;;;;7.63;2.75;;;;;;;17.78;57.06;101974.78;4960821;28;112902;-74
2022/10/08 08:57:56;;;;;;;6.90;1.90;;;;;;;17.85;56.46;101986.91;4969668;28;124735;-73
2022/10/08 09:00:39;;;;;;;7.72;1.98;;;;;;;17.89;56.14;101983.09;4977224;28;122979;-74
2022/10/08 09:03:15;;;;;;;9.77;2.38;;;;;;;17.95;56.07;101987.22;4939619;28;113222;-73
2022/10/08 09:05:45;;;;;;;6.50;1.83;;;;;;;17.98;55.82;101987.91;4969667;28;114422;-73
2022/10/08 09:08:41;;;;;;;10.05;2.20;;;;;;;18.00;55.76;101996.72;4971592;28;123872;-73
2022/10/08 09:11:13;;;;;;;8.73;2.38;;;;;;;18.05;55.31;101988.44;4964071;28;122941;-73
2022/10/08 09:13:57;;;;;;;9.55;1.70;;;;;;;18.11;54.76;101997.94;4969034;28;114666;-73
2022/10/08 09:16:28;;;;;;;5.30;1.20;;;;;;;18.18;54.75;102007.38;4968527;28;115825;-73
2022/10/08 09:18:55;;;;;;;6.75;1.67;;;;;;;18.25;54.65;102011.38;4951836;28;123869;-72
2022/10/08 09:21:24;;;;;;;6.47;1.25;;;;;;;18.32;53.79;102012.75;4953260;28;122856;-74
2022/10/08 09:23:51;;;;;;;6.90;1.30;;;;;;;18.38;53.93;102016.91;4970718;28;114708;-73
2022/10/08 09:26:23;;;;;;;5.68;1.20;;;;;;;18.44;53.88;102028.13;4975373;28;114134;-73
2022/10/08 09:28:55;;;;;;;7.63;1.23;;;;;;;18.48;52.85;102029.69;4949206;28;123445;-73
2022/10/08 09:31:28;;;;;;;9.65;1.35;;;;;;;18.44;52.26;102030.81;4970742;28;123361;-73
2022/10/08 09:33:57;;;;;;;6.40;1.17;;;;;;;18.39;52.04;102034.72;4963692;28;113321;-73
2022/10/08 09:36:33;;;;;;;4.95;1.20;;;;;;;18.33;51.77;102040.44;4970127;28;114151;-73
2022/10/08 09:39:03;;;;;;;7.35;1.27;;;;;;;18.24;51.66;102041.84;4967915;28;123848;-73
2022/10/08 09:41:31;;;;;;;10.32;1.48;;;;;;;18.20;51.92;102045.66;4952113;28;123543;-73
2022/10/08 09:44:06;;;;;;;5.72;1.27;;;;;;;18.18;51.53;102058.31;4956961;28;113229;-73
2022/10/08 09:46:33;;;;;;;7.70;1.10;;;;;;;18.20;51.43;102051.03;4970966;28;114189;-73
2022/10/08 09:49:39;;;;;;;5.78;1.30;;;;;;;18.22;51.81;102054.50;4956488;28;124385;-73
2022/10/08 09:52:21;;;;;;;6.85;1.23;;;;;;;18.30;51.63;102062.94;4888379;28;123639;-73
2022/10/08 09:54:53;;;;;;;8.18;1.20;;;;;;;18.39;51.74;102061.56;4875455;28;114570;-73
2022/10/08 09:57:21;;;;;;;5.63;1.10;;;;;;;18.48;51.54;102067.25;4933140;28;114178;-73
2022/10/08 09:59:57;;;;;;;4.18;1.20;;;;;;;18.57;51.33;102071.22;4970300;28;124051;-74
2022/10/08 10:02:28;;;;;;;5.32;0.93;;;;;;;18.69;50.76;102069.59;4967022;28;123165;-73
2022/10/08 10:04:56;;;;;;;6.07;1.50;;;;;;;18.76;50.47;102065.59;4967963;28;115252;-74
2022/10/08 10:07:35;;;;;;;5.07;1.20;;;;;;;18.79;49.92;102075.28;4970550;28;114608;-73
2022/10/08 10:10:09;;;;;;;5.65;1.13;;;;;;;18.77;49.47;102077.19;4945396;28;122651;-73
2022/10/08 10:12:41;;;;;;;5.97;1.30;;;;;;;18.74;49.34;102078.25;4957417;28;124344;-73
2022/10/08 10:15:19;;;;;;;3.72;1.20;;;;;;;18.76;49.17;102072.78;4954912;28;113875;-73
2022/10/08 10:17:52;;;;;;;5.22;1.50;;;;;;;18.79;49.05;102076.13;4967626;28;114512;-73
2022/10/08 10:20:28;;;;;;;5.43;1.27;;;;;;;18.82;49.03;102070.63;4975874;28;124258;-74
2022/10/08 10:23:05;;;;;;;7.72;0.98;;;;;;;18.88;48.88;102071.22;4969270;28;124178;-73
2022/10/08 10:25:51;;;;;;;7.45;1.10;;;;;;;18.97;49.09;102073.34;4951865;28;114487;-73
2022/10/08 10:28:41;;;;;;;3.92;1.17;;;;;;;19.05;48.72;102076.41;4957067;28;113959;-73
2022/10/08 10:31:20;;;;;;;5.13;1.10;;;;;;;19.12;48.74;102077.78;4968210;28;124009;-73
2022/10/08 10:34:01;;;;;;;6.45;1.30;;;;;;;19.22;48.45;102078.06;4952787;28;123879;-74
2022/10/08 10:36:36;;;;;;;6.63;1.17;;;;;;;19.31;48.69;102081.97;4965789;28;114830;-73
2022/10/08 10:39:26;;;;;;;6.15;1.30;;;;;;;19.41;48.78;102077.78;4963455;28;113714;-74
2022/10/08 10:42:19;;;;;;;3.13;1.00;;;;;;;19.50;48.16;102079.03;4953096;28;123419;-74
2022/10/08 10:44:52;;;;;;;3.53;1.20;;;;;;;19.59;47.77;102087.38;4956584;28;125059;-74
2022/10/08 10:47:21;;;;;;;4.40;0.90;;;;;;;19.67;47.16;102088.72;4947729;28;113752;-74
2022/10/08 10:49:50;;;;;;;5.82;1.23;;;;;;;19.68;46.96;102087.75;4954946;28;112740;-74
2022/10/08 10:52:43;;;;;;;4.78;1.00;;;;;;;19.68;46.71;102095.81;4967984;28;124945;-74
2022/10/08 10:55:30;;;;;;;5.72;1.50;;;;;;;19.69;46.92;102084.09;4962768;28;124287;-73
2022/10/08 10:58:18;;;;;;;4.80;1.20;;;;;;;19.74;47.01;102088.25;4967247;28;114834;-73
2022/10/08 11:01:04;;;;;;;4.32;1.15;;;;;;;19.79;46.87;102088.81;4969603;28;114843;-74
2022/10/08 11:03:49;;;;;;;;;;;;;;;19.81;47.95;102086.03;4967772;28;124593;-73
2022/10/08 11:06:41;;;;;;;4.47;1.05;;;;;;;19.88;47.67;102087.38;4969822;28;124504;-73
2022/10/08 11:09:20;;;;;;;5.00;1.02;;;;;;;20.01;47.40;102093.66;4954389;28;113310;-74
2022/10/08 11:12:03;;;;;;;8.23;1.13;;;;;;;20.14;46.94;102087.50;4952298;28;112963;-74
2022/10/08 11:14:43;;;;;;;5.13;1.40;;;;;;;20.23;46.60;102089.59;4963045;28;124405;-74
2022/10/08 11:17:33;;;;;;;7.05;1.20;;;;;;;20.30;46.21;102098.94;4968110;28;123759;-74
2022/10/08 11:20:38;;;;;;;6.25;1.30;;;;;;;20.31;46.26;102095.31;4949898;28;113921;-74
2022/10/08 11:23:15;;;;;;;4.60;1.10;;;;;;;20.27;45.93;102093.78;4956043;28;113896;-74
2022/10/08 11:25:57;;;;;;;5.72;1.38;;;;;;;20.21;45.59;102088.78;4950254;28;124670;-74
2022/10/08 11:28:53;;;;;;;3.92;1.10;;;;;;;20.12;45.56;102090.28;4954650;28;124342;-74
2022/10/08 11:31:32;;;;;;;5.50;1.35;;;;;;;20.05;45.39;102093.47;4966898;28;114467;-74
2022/10/08 11:34:00;;;;;;;4.47;1.30;;;;;;;19.93;45.05;102101.38;4967069;28;114157;-74
2022/10/08 11:36:39;;;;;;;6.72;1.40;;;;;;;19.81;44.90;102107.53;4968258;28;124016;-73
2022/10/08 11:39:14;;;;;;;7.63;1.55;;;;;;;19.68;44.90;102111.94;4966754;28;124028;-74